createdAt,value
2023-04-16T00:01:50.767Z,2.60
2023-04-16T00:04:17.667Z,2.50
2023-04-16T00:06:44.412Z,2.50
2023-04-16T00:09:11.454Z,2.60
2023-04-16T00:11:38.350Z,2.60
2023-04-16T00:14:05.190Z,2.70
2023-04-16T00:16:31.967Z,2.80
2023-04-16T00:18:58.733Z,2.60
2023-04-16T00:21:26.382Z,2.60
2023-04-16T00:23:53.124Z,2.60
2023-04-16T00:26:19.830Z,2.60
2023-04-16T00:28:46.815Z,2.50
2023-04-16T00:31:13.524Z,2.50
2023-04-16T00:33:40.366Z,2.50
2023-04-16T00:36:07.406Z,2.50
2023-04-16T00:38:34.184Z,2.40
2023-04-16T00:41:00.958Z,2.40
2023-04-16T00:43:27.789Z,2.40
2023-04-16T00:45:57.336Z,2.40
2023-04-16T00:48:24.721Z,2.40
2023-04-16T00:50:51.477Z,2.40
2023-04-16T00:53:18.289Z,3.00
2023-04-16T00:55:45.893Z,2.50
2023-04-16T00:58:12.822Z,2.50
2023-04-16T01:00:39.601Z,2.40
2023-04-16T01:03:06.469Z,2.40
2023-04-16T01:05:33.316Z,2.40
2023-04-16T01:08:03.198Z,2.40
2023-04-16T01:10:29.992Z,2.30
2023-04-16T01:12:56.648Z,2.30
2023-04-16T01:15:23.386Z,2.40
2023-04-16T01:17:50.812Z,2.40
2023-04-16T01:20:17.530Z,2.40
2023-04-16T01:22:44.221Z,2.40
2023-04-16T01:25:14.542Z,2.40
2023-04-16T01:27:41.376Z,2.40
2023-04-16T01:30:08.625Z,2.30
2023-04-16T01:32:48.934Z,2.30
2023-04-16T01:35:16.435Z,2.30
2023-04-16T01:37:44.390Z,2.30
2023-04-16T01:40:11.401Z,2.30
2023-04-16T01:42:38.554Z,2.40
2023-04-16T01:45:06.161Z,2.30
2023-04-16T01:47:32.951Z,2.30
2023-04-16T01:50:00.976Z,2.30
2023-04-16T01:52:27.754Z,2.30
2023-04-16T01:54:54.472Z,2.40
2023-04-16T01:57:21.208Z,2.50
2023-04-16T02:00:27.697Z,2.40
2023-04-16T02:02:54.986Z,2.40
2023-04-16T02:05:26.475Z,2.40
2023-04-16T02:07:53.254Z,2.40
2023-04-16T02:10:19.971Z,2.40
2023-04-16T02:12:47.679Z,2.30
2023-04-16T02:15:16.320Z,2.20
2023-04-16T02:17:43.130Z,2.30
2023-04-16T02:20:11.179Z,2.30
2023-04-16T02:22:48.037Z,2.20
2023-04-16T02:25:18.241Z,2.20
2023-04-16T02:27:44.975Z,2.20
2023-04-16T02:30:24.264Z,2.30
2023-04-16T02:32:52.169Z,2.30
2023-04-16T02:35:19.796Z,2.20
2023-04-16T02:37:46.532Z,2.20
2023-04-16T02:40:13.280Z,2.20
2023-04-16T02:42:39.968Z,2.10
2023-04-16T02:45:08.086Z,2.10
2023-04-16T02:47:34.829Z,2.00
2023-04-16T02:50:01.565Z,2.00
2023-04-16T02:52:28.262Z,1.90
2023-04-16T02:54:55.029Z,1.90
2023-04-16T02:57:21.815Z,1.90
2023-04-16T02:59:48.567Z,2.00
2023-04-16T03:02:16.195Z,2.00
2023-04-16T03:04:43.124Z,2.50
2023-04-16T03:07:09.951Z,2.10
2023-04-16T03:09:36.982Z,2.00
2023-04-16T03:12:04.033Z,1.90
2023-04-16T03:14:31.190Z,1.90
2023-04-16T03:16:58.360Z,2.00
2023-04-16T03:19:25.678Z,1.90
2023-04-16T03:21:52.438Z,1.90
2023-04-16T03:24:19.354Z,1.80
2023-04-16T03:26:48.881Z,1.80
2023-04-16T03:29:15.980Z,1.70
2023-04-16T03:31:43.149Z,1.70
2023-04-16T03:34:09.899Z,1.80
2023-04-16T03:36:36.651Z,1.90
2023-04-16T03:39:03.509Z,1.90
2023-04-16T03:41:30.424Z,1.80
2023-04-16T03:43:57.960Z,1.80
2023-04-16T03:46:24.700Z,1.70
2023-04-16T03:48:51.687Z,1.70
2023-04-16T03:51:18.764Z,1.70
2023-04-16T03:53:45.939Z,1.80
2023-04-16T03:56:14.086Z,1.80
2023-04-16T03:58:40.831Z,1.80
2023-04-16T04:01:08.312Z,1.80
2023-04-16T04:03:35.502Z,1.80
2023-04-16T04:06:07.658Z,1.80
2023-04-16T04:08:34.356Z,1.80
2023-04-16T04:11:02.982Z,1.80
2023-04-16T04:13:30.830Z,1.70
2023-04-16T04:15:58.399Z,1.70
2023-04-16T04:18:26.937Z,1.70
2023-04-16T04:20:53.830Z,1.80
2023-04-16T04:23:24.595Z,1.70
2023-04-16T04:25:51.502Z,1.70
2023-04-16T04:28:18.424Z,1.70
2023-04-16T04:30:45.250Z,1.60
2023-04-16T04:33:12.526Z,1.70
2023-04-16T04:35:39.290Z,1.60
2023-04-16T04:38:06.264Z,1.60
2023-04-16T04:40:33.548Z,1.70
2023-04-16T04:43:00.912Z,1.70
2023-04-16T04:45:29.582Z,1.70
2023-04-16T04:47:58.266Z,1.70
2023-04-16T04:50:26.356Z,1.80
2023-04-16T04:52:53.155Z,1.80
2023-04-16T04:55:20.000Z,1.80
2023-04-16T04:57:46.913Z,1.80
2023-04-16T05:00:13.787Z,1.80
2023-04-16T05:02:54.890Z,1.90
2023-04-16T05:05:21.799Z,1.90
2023-04-16T05:07:48.521Z,1.80
2023-04-16T05:10:15.658Z,1.90
2023-04-16T05:12:42.328Z,1.90
2023-04-16T05:15:09.471Z,1.90
2023-04-16T05:17:36.318Z,1.90
2023-04-16T05:20:03.152Z,1.90
2023-04-16T05:22:30.875Z,2.00
2023-04-16T05:24:59.602Z,1.90
2023-04-16T05:27:26.352Z,2.00
2023-04-16T05:29:53.175Z,2.00
2023-04-16T05:32:19.938Z,2.00
2023-04-16T05:34:46.608Z,2.10
2023-04-16T05:37:13.269Z,2.10
2023-04-16T05:39:40.024Z,2.10
2023-04-16T05:42:06.710Z,2.00
2023-04-16T05:44:33.902Z,2.00
2023-04-16T05:47:00.604Z,2.00
2023-04-16T05:49:27.280Z,2.00
2023-04-16T05:51:53.979Z,2.10
2023-04-16T05:54:20.644Z,2.10
2023-04-16T05:56:47.309Z,2.10
2023-04-16T05:59:14.044Z,2.10
2023-04-16T06:01:41.407Z,2.10
2023-04-16T06:04:08.195Z,2.20
2023-04-16T06:06:34.986Z,2.10
2023-04-16T06:09:01.660Z,2.20
2023-04-16T06:11:30.110Z,2.20
2023-04-16T06:13:56.840Z,2.10
2023-04-16T06:16:23.535Z,2.10
2023-04-16T06:18:50.199Z,2.30
2023-04-16T06:21:16.905Z,2.20
2023-04-16T06:23:43.554Z,2.20
2023-04-16T06:26:11.344Z,2.30
2023-04-16T06:28:38.033Z,2.30
2023-04-16T06:31:04.954Z,2.20
2023-04-16T06:33:31.728Z,2.10
2023-04-16T06:35:58.379Z,2.20
2023-04-16T06:38:25.048Z,2.10
2023-04-16T06:40:51.844Z,2.20
2023-04-16T06:43:18.569Z,2.20
2023-04-16T06:45:45.329Z,2.30
2023-04-16T06:48:12.005Z,2.20
2023-04-16T06:50:38.807Z,2.20
2023-04-16T06:53:05.613Z,2.20
2023-04-16T06:55:32.330Z,2.40
2023-04-16T06:57:59.126Z,2.40
2023-04-16T07:00:26.051Z,2.30
2023-04-16T07:02:53.109Z,2.30
2023-04-16T07:05:20.828Z,2.40
2023-04-16T07:07:47.581Z,2.50
2023-04-16T07:10:14.450Z,2.40
2023-04-16T07:12:41.173Z,2.30
2023-04-16T07:15:08.370Z,2.30
2023-04-16T07:17:35.173Z,2.40
2023-04-16T07:20:01.855Z,2.40
2023-04-16T07:22:28.578Z,2.50
2023-04-16T07:24:55.552Z,2.60
2023-04-16T07:27:22.309Z,2.50
2023-04-16T07:29:50.352Z,2.50
2023-04-16T07:32:17.221Z,2.40
2023-04-16T07:34:43.943Z,2.40
2023-04-16T07:37:10.781Z,2.40
2023-04-16T07:39:37.487Z,2.40
2023-04-16T07:42:04.216Z,2.50
2023-04-16T07:44:31.047Z,2.60
2023-04-16T07:46:57.940Z,2.60
2023-04-16T07:49:24.863Z,2.70
2023-04-16T07:51:51.594Z,2.60
2023-04-16T07:54:18.283Z,2.70
2023-04-16T07:56:45.055Z,2.60
2023-04-16T08:01:41.580Z,2.70
2023-04-16T08:04:08.675Z,2.70
2023-04-16T08:06:35.481Z,2.80
2023-04-16T08:09:02.176Z,2.80
2023-04-16T08:11:28.957Z,2.70
2023-04-16T08:13:55.665Z,2.70
2023-04-16T08:16:22.631Z,2.80
2023-04-16T08:18:49.584Z,2.70
2023-04-16T08:21:16.347Z,2.70
2023-04-16T08:23:43.105Z,2.70
2023-04-16T08:26:09.762Z,2.70
2023-04-16T08:28:36.447Z,2.70
2023-04-16T08:31:03.245Z,2.60
2023-04-16T08:33:29.990Z,2.70
2023-04-16T08:35:56.635Z,2.70
2023-04-16T08:38:23.296Z,2.70
2023-04-16T08:40:50.531Z,2.80
2023-04-16T08:43:19.002Z,2.80
2023-04-16T08:45:47.713Z,3.00
2023-04-16T08:48:15.590Z,3.00
2023-04-16T08:50:43.450Z,2.90
2023-04-16T08:53:15.544Z,2.90
2023-04-16T08:55:49.409Z,2.90
2023-04-16T08:58:19.748Z,3.00
2023-04-16T09:00:47.706Z,2.90
2023-04-16T09:03:14.744Z,3.10
2023-04-16T09:05:42.603Z,3.20
2023-04-16T09:08:09.523Z,3.40
2023-04-16T09:10:36.628Z,3.40
2023-04-16T09:13:03.401Z,3.20
2023-04-16T09:15:30.515Z,3.30
2023-04-16T09:17:57.590Z,3.40
2023-04-16T09:20:24.598Z,3.40
2023-04-16T09:22:51.312Z,3.50
2023-04-16T09:25:20.762Z,3.60
2023-04-16T09:27:50.445Z,3.60
2023-04-16T09:30:27.560Z,3.40
2023-04-16T09:33:16.435Z,3.60
2023-04-16T09:35:51.227Z,3.60
2023-04-16T09:38:18.983Z,3.50
2023-04-16T09:40:47.461Z,3.70
2023-04-16T09:43:16.390Z,3.80
2023-04-16T09:45:53.318Z,3.80
2023-04-16T09:48:33.494Z,3.90
2023-04-16T09:51:01.312Z,3.90
2023-04-16T09:53:30.106Z,3.90
2023-04-16T09:56:05.710Z,3.80
2023-04-16T09:58:33.124Z,3.60
2023-04-16T10:01:03.522Z,3.60
2023-04-16T10:03:31.933Z,3.70
2023-04-16T10:06:19.942Z,3.80
2023-04-16T10:08:51.481Z,3.70
2023-04-16T10:11:19.308Z,3.90
2023-04-16T10:13:46.330Z,3.80
2023-04-16T10:16:13.408Z,3.80
2023-04-16T10:18:43.185Z,3.90
2023-04-16T10:21:13.087Z,3.90
2023-04-16T10:23:40.532Z,3.90
2023-04-16T10:26:07.473Z,3.90
2023-04-16T10:28:35.692Z,4.00
2023-04-16T10:31:04.482Z,4.00
2023-04-16T10:33:40.496Z,4.00
2023-04-16T10:36:22.599Z,4.00
2023-04-16T10:38:58.353Z,3.90
2023-04-16T10:41:26.748Z,3.90
2023-04-16T10:43:53.924Z,3.80
2023-04-16T10:46:31.456Z,3.90
2023-04-16T10:49:03.487Z,3.90
2023-04-16T10:51:31.372Z,3.90
2023-04-16T10:54:08.557Z,3.80
2023-04-16T10:56:36.554Z,4.00
2023-04-16T10:59:11.074Z,4.00
2023-04-16T11:01:44.751Z,3.90
2023-04-16T11:04:21.141Z,3.90
2023-04-16T11:07:19.355Z,4.00
2023-04-16T11:10:06.028Z,4.00
2023-04-16T11:12:42.681Z,4.00
2023-04-16T11:15:15.029Z,3.90
2023-04-16T11:17:47.061Z,3.90
2023-04-16T11:20:21.943Z,4.00
2023-04-16T11:22:49.789Z,4.00
2023-04-16T11:25:24.405Z,4.10
2023-04-16T11:27:52.185Z,4.10
2023-04-16T11:30:27.693Z,4.10
2023-04-16T11:32:54.581Z,4.20
2023-04-16T11:35:21.469Z,4.10
2023-04-16T11:37:51.031Z,4.20
2023-04-16T11:40:17.696Z,4.10
2023-04-16T11:42:44.683Z,4.30
2023-04-16T11:45:12.411Z,4.30
2023-04-16T11:47:55.120Z,4.30
2023-04-16T11:50:27.269Z,4.50
2023-04-16T11:52:56.782Z,4.50
2023-04-16T11:55:24.447Z,4.50
2023-04-16T11:57:52.608Z,4.70
2023-04-16T12:00:21.105Z,4.80
2023-04-16T12:02:52.904Z,4.80
2023-04-16T12:05:34.662Z,4.80
2023-04-16T12:08:04.017Z,4.80
2023-04-16T12:10:36.825Z,4.60
2023-04-16T12:13:14.680Z,4.60
2023-04-16T12:15:49.067Z,4.70
2023-04-16T12:18:20.155Z,4.80
2023-04-16T12:20:47.534Z,4.80
2023-04-16T12:23:34.257Z,4.90
2023-04-16T12:26:10.588Z,4.80
2023-04-16T12:28:39.248Z,4.90
2023-04-16T12:31:06.273Z,4.90
2023-04-16T12:33:33.113Z,4.80
2023-04-16T12:36:00.091Z,4.90
2023-04-16T12:38:27.621Z,5.00
2023-04-16T12:40:56.971Z,5.10
2023-04-16T12:43:24.312Z,5.10
2023-04-16T12:45:51.067Z,5.20
2023-04-16T12:48:17.808Z,5.30
2023-04-16T12:50:44.712Z,5.10
2023-04-16T12:53:11.822Z,5.10
2023-04-16T12:55:38.594Z,5.10
2023-04-16T12:58:05.379Z,5.00
2023-04-16T13:00:32.193Z,5.00
2023-04-16T13:02:59.110Z,5.00
2023-04-16T13:05:26.399Z,4.90
2023-04-16T13:07:53.819Z,5.00
2023-04-16T13:10:22.012Z,5.00
2023-04-16T13:12:48.951Z,5.00
2023-04-16T13:15:15.850Z,5.00
2023-04-16T13:17:42.570Z,5.00
2023-04-16T13:20:09.977Z,5.10
2023-04-16T13:22:36.802Z,5.10
2023-04-16T13:25:03.743Z,5.10
2023-04-16T13:27:32.052Z,5.20
2023-04-16T13:29:58.724Z,5.20
2023-04-16T13:32:25.433Z,5.20
2023-04-16T13:34:52.176Z,5.30
2023-04-16T13:37:18.872Z,5.30
2023-04-16T13:39:47.278Z,5.40
2023-04-16T13:42:13.992Z,5.30
2023-04-16T13:44:41.028Z,5.30
2023-04-16T13:47:08.012Z,5.30
2023-04-16T13:49:35.961Z,5.40
2023-04-16T13:52:03.238Z,5.40
2023-04-16T13:54:29.966Z,5.40
2023-04-16T13:56:56.955Z,5.50
2023-04-16T13:59:23.716Z,5.50
2023-04-16T14:01:51.040Z,5.60
2023-04-16T14:04:17.875Z,5.60
2023-04-16T14:06:44.646Z,5.60
2023-04-16T14:09:11.471Z,5.50
2023-04-16T14:11:38.271Z,5.30
2023-04-16T14:14:05.059Z,5.40
2023-04-16T14:16:31.783Z,5.50
2023-04-16T14:18:58.479Z,5.40
2023-04-16T14:21:25.240Z,5.40
2023-04-16T14:23:51.947Z,5.50
2023-04-16T14:26:18.655Z,5.60
2023-04-16T14:28:45.395Z,5.60
2023-04-16T14:31:12.140Z,5.80
2023-04-16T14:33:38.980Z,5.80
2023-04-16T14:36:06.214Z,5.90
2023-04-16T14:38:33.010Z,5.80
2023-04-16T14:41:00.510Z,5.80
2023-04-16T14:43:27.325Z,5.70
2023-04-16T14:45:54.030Z,5.70
2023-04-16T14:48:21.937Z,5.70
2023-04-16T14:50:48.758Z,5.70
2023-04-16T14:53:15.501Z,5.70
2023-04-16T14:55:42.295Z,5.50
2023-04-16T14:58:09.011Z,5.60
2023-04-16T15:00:35.734Z,5.60
2023-04-16T15:03:02.642Z,5.60
2023-04-16T15:05:31.426Z,5.70
2023-04-16T15:07:58.193Z,5.70
2023-04-16T15:10:24.919Z,5.80
2023-04-16T15:12:51.577Z,5.80
2023-04-16T15:15:18.335Z,5.80
2023-04-16T15:17:45.681Z,5.70
2023-04-16T15:20:13.361Z,5.60
2023-04-16T15:22:40.582Z,5.60
2023-04-16T15:25:07.818Z,5.60
2023-04-16T15:27:34.590Z,5.60
2023-04-16T15:30:01.326Z,5.50
2023-04-16T15:32:28.055Z,5.50
2023-04-16T15:34:54.741Z,5.50
2023-04-16T15:37:21.395Z,5.50
2023-04-16T15:39:48.399Z,5.50
2023-04-16T15:42:15.639Z,5.50
2023-04-16T15:44:42.451Z,5.60
2023-04-16T15:47:09.271Z,5.50
2023-04-16T15:49:36.364Z,5.50
2023-04-16T15:52:03.313Z,5.50
2023-04-16T15:54:31.706Z,5.50
2023-04-16T15:56:58.754Z,5.50
2023-04-16T15:59:26.615Z,5.50
2023-04-16T16:01:53.475Z,5.60
2023-04-16T16:04:22.753Z,5.40
2023-04-16T16:06:50.298Z,5.50
2023-04-16T16:09:17.108Z,5.50
2023-04-16T16:11:43.791Z,5.50
2023-04-16T16:14:10.859Z,5.50
2023-04-16T16:16:37.898Z,5.50
2023-04-16T16:19:04.733Z,5.50
2023-04-16T16:21:32.508Z,5.40
2023-04-16T16:23:59.278Z,5.40
2023-04-16T16:26:25.937Z,5.40
2023-04-16T16:28:52.627Z,5.30
2023-04-16T16:31:19.516Z,5.30
2023-04-16T16:33:46.310Z,5.30
2023-04-16T16:36:13.241Z,5.20
2023-04-16T16:38:40.992Z,5.20
2023-04-16T16:41:07.846Z,5.20
2023-04-16T16:43:36.625Z,5.20
2023-04-16T16:46:03.497Z,5.20
2023-04-16T16:48:30.379Z,5.10
2023-04-16T16:50:57.196Z,5.10
2023-04-16T16:53:23.899Z,5.10
2023-04-16T16:55:50.624Z,5.20
2023-04-16T16:58:17.317Z,5.10
2023-04-16T17:00:44.136Z,5.10
2023-04-16T17:03:11.316Z,5.00
2023-04-16T17:05:38.303Z,5.00
2023-04-16T17:08:06.504Z,5.00
2023-04-16T17:10:33.285Z,5.00
2023-04-16T17:13:00.114Z,5.00
2023-04-16T17:15:26.926Z,5.10
2023-04-16T17:17:53.887Z,5.00
2023-04-16T17:20:20.841Z,5.00
2023-04-16T17:22:47.567Z,4.90
2023-04-16T17:25:14.296Z,4.90
2023-04-16T17:27:41.315Z,4.90
2023-04-16T17:30:08.487Z,4.90
2023-04-16T17:32:35.236Z,4.90
2023-04-16T17:35:04.099Z,4.80
2023-04-16T17:37:31.089Z,4.80
2023-04-16T17:39:57.842Z,4.70
2023-04-16T17:42:24.696Z,4.70
2023-04-16T17:44:51.851Z,4.70
2023-04-16T17:47:18.601Z,4.70
2023-04-16T17:49:45.373Z,4.70
2023-04-16T17:52:12.105Z,4.60
2023-04-16T17:54:38.845Z,4.50
2023-04-16T17:57:05.806Z,4.50
2023-04-16T17:59:33.299Z,4.50
2023-04-16T18:02:00.282Z,4.50
2023-04-16T18:04:27.416Z,4.50
2023-04-16T18:06:54.259Z,4.50
2023-04-16T18:09:21.241Z,4.50
2023-04-16T18:11:48.099Z,4.40
2023-04-16T18:14:19.630Z,4.40
2023-04-16T18:16:47.403Z,4.40
2023-04-16T18:19:14.331Z,4.40
2023-04-16T18:21:41.125Z,4.30
2023-04-16T18:24:08.272Z,4.40
2023-04-16T18:26:36.206Z,4.40
2023-04-16T18:29:03.972Z,4.30
2023-04-16T18:31:30.909Z,4.40
2023-04-16T18:33:58.554Z,4.40
2023-04-16T18:36:26.799Z,4.30
2023-04-16T18:39:01.621Z,4.30
2023-04-16T18:41:41.643Z,4.30
2023-04-16T18:44:10.617Z,4.40
2023-04-16T18:46:37.339Z,4.30
2023-04-16T18:49:04.092Z,4.30
2023-04-16T18:51:30.744Z,4.30
2023-04-16T18:53:57.535Z,4.30
2023-04-16T18:56:24.264Z,4.30
2023-04-16T18:58:51.016Z,4.20
2023-04-16T19:01:18.249Z,4.20
2023-04-16T19:03:45.442Z,4.30
2023-04-16T19:06:12.153Z,4.30
2023-04-16T19:08:38.830Z,4.30
2023-04-16T19:11:05.701Z,4.30
2023-04-16T19:13:32.405Z,4.30
2023-04-16T19:16:00.837Z,4.30
2023-04-16T19:18:27.807Z,4.20
2023-04-16T19:21:01.263Z,4.30
2023-04-16T19:23:28.612Z,4.30
2023-04-16T19:25:58.764Z,4.30
2023-04-16T19:28:25.670Z,4.30
2023-04-16T19:30:53.499Z,4.30
2023-04-16T19:33:20.309Z,4.30
2023-04-16T19:35:47.382Z,4.30
2023-04-16T19:38:14.085Z,4.30
2023-04-16T19:40:43.481Z,4.30
2023-04-16T19:43:10.294Z,4.30
2023-04-16T19:45:42.943Z,4.30
2023-04-16T19:48:09.773Z,4.30
2023-04-16T19:50:39.439Z,4.30
2023-04-16T19:53:06.295Z,4.30
2023-04-16T19:55:32.957Z,4.20
2023-04-16T19:58:05.574Z,4.20
2023-04-16T20:00:33.625Z,4.20
2023-04-16T20:03:00.554Z,4.30
2023-04-16T20:05:27.979Z,4.30
2023-04-16T20:07:55.332Z,4.40
2023-04-16T20:10:22.657Z,4.50
2023-04-16T20:12:50.658Z,4.50
2023-04-16T20:15:18.264Z,4.60
2023-04-16T20:17:45.320Z,4.70
2023-04-16T20:20:12.345Z,4.80
2023-04-16T20:22:39.962Z,4.80
2023-04-16T20:25:07.477Z,4.90
2023-04-16T20:27:35.817Z,4.90
2023-04-16T20:30:03.586Z,4.90
2023-04-16T20:32:30.264Z,5.00
2023-04-16T20:34:57.186Z,5.00
2023-04-16T20:37:23.855Z,5.00
2023-04-16T20:39:58.207Z,4.90
2023-04-16T20:42:26.254Z,4.70
2023-04-16T20:44:56.373Z,4.60
2023-04-16T20:47:23.634Z,4.60
2023-04-16T20:49:50.489Z,4.60
2023-04-16T20:52:17.369Z,4.50
2023-04-16T20:54:44.379Z,4.50
2023-04-16T20:57:11.810Z,4.50
2023-04-16T20:59:38.670Z,4.50
2023-04-16T21:02:05.829Z,4.50
2023-04-16T21:04:32.786Z,4.50
2023-04-16T21:07:03.084Z,4.50
2023-04-16T21:09:30.839Z,4.50
2023-04-16T21:11:57.690Z,4.50
2023-04-16T21:14:24.380Z,4.40
2023-04-16T21:16:51.084Z,4.30
2023-04-16T21:19:17.776Z,4.30
2023-04-16T21:21:44.438Z,4.30
2023-04-16T21:24:11.103Z,4.30
2023-04-16T21:26:37.745Z,4.30
2023-04-16T21:29:04.444Z,4.30
2023-04-16T21:31:31.096Z,4.30
2023-04-16T21:33:57.774Z,4.40
2023-04-16T21:36:26.502Z,4.50
2023-04-16T21:38:53.263Z,4.40
2023-04-16T21:41:19.910Z,4.50
2023-04-16T21:43:46.572Z,4.50
2023-04-16T21:46:13.235Z,4.40
2023-04-16T21:48:39.943Z,4.40
2023-04-16T21:51:07.056Z,4.30
2023-04-16T21:53:34.294Z,4.30
2023-04-16T21:56:01.043Z,4.30
2023-04-16T21:58:27.792Z,4.40
2023-04-16T22:00:54.541Z,4.40
2023-04-16T22:03:27.712Z,4.40
2023-04-16T22:06:01.400Z,4.50
2023-04-16T22:08:31.632Z,4.50
2023-04-16T22:11:00.173Z,4.60
2023-04-16T22:13:28.066Z,4.70
2023-04-16T22:15:55.544Z,4.80
2023-04-16T22:18:25.377Z,4.80
2023-04-16T22:20:55.033Z,4.80
2023-04-16T22:23:25.241Z,4.60
2023-04-16T22:25:54.704Z,4.40
2023-04-16T22:28:21.673Z,4.30
2023-04-16T22:30:48.907Z,4.10
2023-04-16T22:33:15.847Z,4.10
2023-04-16T22:35:42.571Z,4.10
2023-04-16T22:38:10.045Z,4.20
2023-04-16T22:40:36.942Z,4.20
2023-04-16T22:43:03.817Z,4.30
2023-04-16T22:45:30.468Z,4.40
2023-04-16T22:47:57.163Z,4.40
2023-04-16T22:50:23.898Z,4.30
2023-04-16T22:52:50.604Z,4.20
2023-04-16T22:55:17.308Z,4.20
2023-04-16T22:57:44.007Z,4.20
2023-04-16T23:00:15.749Z,4.20
2023-04-16T23:02:43.062Z,4.20
2023-04-16T23:05:10.322Z,4.30
2023-04-16T23:07:37.103Z,4.30
2023-04-16T23:10:04.121Z,4.30
2023-04-16T23:12:30.849Z,4.30
2023-04-16T23:14:58.220Z,4.30
2023-04-16T23:17:25.044Z,4.40
2023-04-16T23:19:51.805Z,4.40
2023-04-16T23:22:18.448Z,4.40
2023-04-16T23:24:45.680Z,4.50
2023-04-16T23:27:12.384Z,4.40
2023-04-16T23:29:39.068Z,4.40
2023-04-16T23:32:05.726Z,4.30
2023-04-16T23:34:32.421Z,4.30
2023-04-16T23:36:59.095Z,4.30
2023-04-16T23:39:26.146Z,4.40
2023-04-16T23:41:52.814Z,4.40
2023-04-16T23:44:19.509Z,4.30
2023-04-16T23:46:46.193Z,4.40
2023-04-16T23:49:13.038Z,4.50
2023-04-16T23:51:40.074Z,4.60
2023-04-16T23:54:06.881Z,4.70
2023-04-16T23:56:33.575Z,4.70
2023-04-16T23:59:00.238Z,4.80
